sensor_id;sensor_type;location;lat;lon;timestamp;P1;durP1;ratioP1;P2;durP2;ratioP2
55210;SDS011;41082;52.822;6.666;2023-02-15T00:01:43;17.08;;;12.40;;
55210;SDS011;41082;52.822;6.666;2023-02-15T00:04:11;19.05;;;13.70;;
55210;SDS011;41082;52.822;6.666;2023-02-15T00:06:38;15.93;;;12.15;;
55210;SDS011;41082;52.822;6.666;2023-02-15T00:09:04;15.90;;;12.27;;
55210;SDS011;41082;52.822;6.666;2023-02-15T00:11:29;14.57;;;12.38;;
55210;SDS011;41082;52.822;6.666;2023-02-15T00:14:05;12.50;;;10.65;;
55210;SDS011;41082;52.822;6.666;2023-02-15T00:16:34;12.85;;;11.10;;
55210;SDS011;41082;52.822;6.666;2023-02-15T00:19:00;9.90;;;8.90;;
55210;SDS011;41082;52.822;6.666;2023-02-15T00:21:27;11.50;;;9.75;;
55210;SDS011;41082;52.822;6.666;2023-02-15T00:23:57;9.88;;;8.88;;
55210;SDS011;41082;52.822;6.666;2023-02-15T00:26:24;10.02;;;9.02;;
55210;SDS011;41082;52.822;6.666;2023-02-15T00:28:49;10.30;;;9.07;;
55210;SDS011;41082;52.822;6.666;2023-02-15T00:31:15;12.88;;;10.13;;
55210;SDS011;41082;52.822;6.666;2023-02-15T00:33:41;10.88;;;9.68;;
55210;SDS011;41082;52.822;6.666;2023-02-15T00:36:07;12.18;;;10.40;;
55210;SDS011;41082;52.822;6.666;2023-02-15T00:38:34;11.00;;;9.27;;
55210;SDS011;41082;52.822;6.666;2023-02-15T00:41:01;10.43;;;9.15;;
55210;SDS011;41082;52.822;6.666;2023-02-15T00:43:30;12.90;;;10.52;;
55210;SDS011;41082;52.822;6.666;2023-02-15T00:45:58;13.13;;;11.45;;
55210;SDS011;41082;52.822;6.666;2023-02-15T00:48:23;14.60;;;11.68;;
55210;SDS011;41082;52.822;6.666;2023-02-15T00:50:50;16.92;;;12.80;;
55210;SDS011;41082;52.822;6.666;2023-02-15T00:53:17;16.17;;;11.70;;
55210;SDS011;41082;52.822;6.666;2023-02-15T00:55:42;15.02;;;11.52;;
55210;SDS011;41082;52.822;6.666;2023-02-15T00:58:09;14.95;;;11.88;;
55210;SDS011;41082;52.822;6.666;2023-02-15T01:00:35;15.35;;;12.13;;
55210;SDS011;41082;52.822;6.666;2023-02-15T01:03:02;14.32;;;11.50;;
55210;SDS011;41082;52.822;6.666;2023-02-15T01:05:28;14.57;;;11.93;;
55210;SDS011;41082;52.822;6.666;2023-02-15T01:07:55;12.82;;;11.52;;
55210;SDS011;41082;52.822;6.666;2023-02-15T01:10:21;12.07;;;10.88;;
55210;SDS011;41082;52.822;6.666;2023-02-15T01:12:47;14.07;;;12.10;;
55210;SDS011;41082;52.822;6.666;2023-02-15T01:15:14;14.98;;;12.63;;
55210;SDS011;41082;52.822;6.666;2023-02-15T01:17:40;15.57;;;13.30;;
55210;SDS011;41082;52.822;6.666;2023-02-15T01:20:05;13.75;;;12.13;;
55210;SDS011;41082;52.822;6.666;2023-02-15T01:22:31;14.38;;;12.13;;
55210;SDS011;41082;52.822;6.666;2023-02-15T01:24:57;13.77;;;12.38;;
55210;SDS011;41082;52.822;6.666;2023-02-15T01:27:22;13.18;;;11.68;;
55210;SDS011;41082;52.822;6.666;2023-02-15T01:29:48;12.77;;;11.45;;
55210;SDS011;41082;52.822;6.666;2023-02-15T01:32:14;12.73;;;11.00;;
55210;SDS011;41082;52.822;6.666;2023-02-15T01:34:39;12.05;;;10.35;;
55210;SDS011;41082;52.822;6.666;2023-02-15T01:37:05;12.70;;;11.07;;
55210;SDS011;41082;52.822;6.666;2023-02-15T01:39:30;14.30;;;12.30;;
55210;SDS011;41082;52.822;6.666;2023-02-15T01:41:56;15.60;;;13.52;;
55210;SDS011;41082;52.822;6.666;2023-02-15T01:47:13;15.55;;;13.13;;
55210;SDS011;41082;52.822;6.666;2023-02-15T01:50:02;18.27;;;14.10;;
55210;SDS011;41082;52.822;6.666;2023-02-15T01:52:34;23.33;;;16.95;;
55210;SDS011;41082;52.822;6.666;2023-02-15T01:55:02;19.55;;;15.95;;
55210;SDS011;41082;52.822;6.666;2023-02-15T01:57:29;20.33;;;15.55;;
55210;SDS011;41082;52.822;6.666;2023-02-15T01:59:56;18.02;;;14.82;;
55210;SDS011;41082;52.822;6.666;2023-02-15T02:02:24;18.65;;;15.07;;
55210;SDS011;41082;52.822;6.666;2023-02-15T02:04:51;19.60;;;15.77;;
55210;SDS011;41082;52.822;6.666;2023-02-15T02:07:21;18.40;;;14.70;;
55210;SDS011;41082;52.822;6.666;2023-02-15T02:09:48;17.88;;;14.65;;
55210;SDS011;41082;52.822;6.666;2023-02-15T02:12:18;18.52;;;14.82;;
55210;SDS011;41082;52.822;6.666;2023-02-15T02:14:46;16.77;;;14.00;;
55210;SDS011;41082;52.822;6.666;2023-02-15T02:17:17;17.90;;;14.40;;
55210;SDS011;41082;52.822;6.666;2023-02-15T02:31:31;17.38;;;14.45;;
55210;SDS011;41082;52.822;6.666;2023-02-15T02:40:30;18.50;;;15.00;;
55210;SDS011;41082;52.822;6.666;2023-02-15T02:43:21;17.50;;;14.30;;
55210;SDS011;41082;52.822;6.666;2023-02-15T02:46:22;17.55;;;14.00;;
55210;SDS011;41082;52.822;6.666;2023-02-15T02:49:02;17.33;;;13.32;;
55210;SDS011;41082;52.822;6.666;2023-02-15T02:51:27;20.02;;;15.07;;
55210;SDS011;41082;52.822;6.666;2023-02-15T02:53:54;18.15;;;14.48;;
55210;SDS011;41082;52.822;6.666;2023-02-15T02:56:39;15.70;;;13.13;;
55210;SDS011;41082;52.822;6.666;2023-02-15T02:59:12;16.05;;;13.05;;
55210;SDS011;41082;52.822;6.666;2023-02-15T03:01:46;17.38;;;13.07;;
55210;SDS011;41082;52.822;6.666;2023-02-15T03:04:23;16.60;;;13.43;;
55210;SDS011;41082;52.822;6.666;2023-02-15T03:06:55;16.05;;;13.02;;
55210;SDS011;41082;52.822;6.666;2023-02-15T03:12:13;17.13;;;13.23;;
55210;SDS011;41082;52.822;6.666;2023-02-15T03:14:46;16.48;;;13.05;;
55210;SDS011;41082;52.822;6.666;2023-02-15T03:17:15;17.17;;;13.15;;
55210;SDS011;41082;52.822;6.666;2023-02-15T03:19:43;15.80;;;13.48;;
55210;SDS011;41082;52.822;6.666;2023-02-15T03:22:17;18.20;;;13.98;;
55210;SDS011;41082;52.822;6.666;2023-02-15T03:24:51;16.50;;;13.95;;
55210;SDS011;41082;52.822;6.666;2023-02-15T03:27:31;16.23;;;12.73;;
55210;SDS011;41082;52.822;6.666;2023-02-15T03:30:02;17.50;;;13.80;;
55210;SDS011;41082;52.822;6.666;2023-02-15T03:32:32;18.30;;;14.75;;
55210;SDS011;41082;52.822;6.666;2023-02-15T03:34:59;21.13;;;15.25;;
55210;SDS011;41082;52.822;6.666;2023-02-15T03:37:39;25.42;;;16.33;;
55210;SDS011;41082;52.822;6.666;2023-02-15T03:43:00;22.00;;;14.23;;
55210;SDS011;41082;52.822;6.666;2023-02-15T03:45:39;17.85;;;13.52;;
55210;SDS011;41082;52.822;6.666;2023-02-15T03:48:20;15.93;;;12.85;;
55210;SDS011;41082;52.822;6.666;2023-02-15T03:50:55;18.38;;;13.10;;
55210;SDS011;41082;52.822;6.666;2023-02-15T03:53:44;14.07;;;12.18;;
55210;SDS011;41082;52.822;6.666;2023-02-15T03:56:12;14.23;;;12.00;;
55210;SDS011;41082;52.822;6.666;2023-02-15T03:58:37;13.13;;;11.68;;
55210;SDS011;41082;52.822;6.666;2023-02-15T04:01:25;14.15;;;12.40;;
55210;SDS011;41082;52.822;6.666;2023-02-15T04:04:30;14.43;;;12.13;;
55210;SDS011;41082;52.822;6.666;2023-02-15T04:06:59;15.32;;;12.55;;
55210;SDS011;41082;52.822;6.666;2023-02-15T04:09:25;15.70;;;13.27;;
55210;SDS011;41082;52.822;6.666;2023-02-15T04:12:09;16.58;;;13.18;;
55210;SDS011;41082;52.822;6.666;2023-02-15T04:14:35;18.98;;;14.73;;
55210;SDS011;41082;52.822;6.666;2023-02-15T04:17:19;17.20;;;13.50;;
55210;SDS011;41082;52.822;6.666;2023-02-15T04:19:44;18.00;;;14.20;;
55210;SDS011;41082;52.822;6.666;2023-02-15T04:22:28;20.38;;;14.38;;
55210;SDS011;41082;52.822;6.666;2023-02-15T04:25:13;14.50;;;11.73;;
55210;SDS011;41082;52.822;6.666;2023-02-15T04:27:39;16.77;;;12.57;;
55210;SDS011;41082;52.822;6.666;2023-02-15T04:30:10;16.58;;;13.10;;
55210;SDS011;41082;52.822;6.666;2023-02-15T04:32:37;17.70;;;12.50;;
55210;SDS011;41082;52.822;6.666;2023-02-15T04:35:03;14.90;;;12.45;;
55210;SDS011;41082;52.822;6.666;2023-02-15T04:37:30;15.73;;;12.27;;
55210;SDS011;41082;52.822;6.666;2023-02-15T04:39:56;17.52;;;13.00;;
55210;SDS011;41082;52.822;6.666;2023-02-15T04:42:23;15.45;;;12.85;;
55210;SDS011;41082;52.822;6.666;2023-02-15T04:44:52;19.73;;;12.95;;
55210;SDS011;41082;52.822;6.666;2023-02-15T04:47:19;15.82;;;12.82;;
55210;SDS011;41082;52.822;6.666;2023-02-15T04:49:45;17.45;;;13.35;;
55210;SDS011;41082;52.822;6.666;2023-02-15T04:52:10;17.75;;;13.93;;
55210;SDS011;41082;52.822;6.666;2023-02-15T04:54:36;20.00;;;15.90;;
55210;SDS011;41082;52.822;6.666;2023-02-15T04:57:03;20.75;;;15.57;;
55210;SDS011;41082;52.822;6.666;2023-02-15T04:59:28;20.77;;;15.35;;
55210;SDS011;41082;52.822;6.666;2023-02-15T05:01:54;22.58;;;16.17;;
55210;SDS011;41082;52.822;6.666;2023-02-15T05:04:20;19.40;;;14.77;;
55210;SDS011;41082;52.822;6.666;2023-02-15T05:06:45;21.38;;;15.52;;
55210;SDS011;41082;52.822;6.666;2023-02-15T05:09:11;21.25;;;16.27;;
55210;SDS011;41082;52.822;6.666;2023-02-15T05:11:37;20.95;;;16.10;;
55210;SDS011;41082;52.822;6.666;2023-02-15T05:14:03;22.77;;;16.20;;
55210;SDS011;41082;52.822;6.666;2023-02-15T05:16:29;21.42;;;15.30;;
55210;SDS011;41082;52.822;6.666;2023-02-15T05:18:55;19.15;;;15.38;;
55210;SDS011;41082;52.822;6.666;2023-02-15T05:21:20;20.15;;;15.02;;
55210;SDS011;41082;52.822;6.666;2023-02-15T05:23:46;18.55;;;14.65;;
55210;SDS011;41082;52.822;6.666;2023-02-15T05:26:12;17.70;;;14.18;;
55210;SDS011;41082;52.822;6.666;2023-02-15T05:29:03;21.42;;;15.05;;
55210;SDS011;41082;52.822;6.666;2023-02-15T05:31:30;19.17;;;14.18;;
55210;SDS011;41082;52.822;6.666;2023-02-15T05:33:56;18.63;;;14.52;;
55210;SDS011;41082;52.822;6.666;2023-02-15T05:36:22;16.10;;;13.32;;
55210;SDS011;41082;52.822;6.666;2023-02-15T05:38:47;20.85;;;15.75;;
55210;SDS011;41082;52.822;6.666;2023-02-15T05:41:13;20.88;;;14.73;;
55210;SDS011;41082;52.822;6.666;2023-02-15T05:43:39;17.40;;;13.82;;
55210;SDS011;41082;52.822;6.666;2023-02-15T05:46:05;21.70;;;15.77;;
55210;SDS011;41082;52.822;6.666;2023-02-15T05:48:31;22.27;;;15.38;;
55210;SDS011;41082;52.822;6.666;2023-02-15T05:51:01;19.40;;;15.40;;
55210;SDS011;41082;52.822;6.666;2023-02-15T05:53:30;20.63;;;15.82;;
55210;SDS011;41082;52.822;6.666;2023-02-15T05:55:57;19.25;;;14.65;;
55210;SDS011;41082;52.822;6.666;2023-02-15T05:58:29;18.92;;;15.77;;
55210;SDS011;41082;52.822;6.666;2023-02-15T06:00:57;21.10;;;16.00;;
55210;SDS011;41082;52.822;6.666;2023-02-15T06:03:23;19.95;;;15.57;;
55210;SDS011;41082;52.822;6.666;2023-02-15T06:05:50;20.10;;;15.68;;
55210;SDS011;41082;52.822;6.666;2023-02-15T06:08:17;22.65;;;16.48;;
55210;SDS011;41082;52.822;6.666;2023-02-15T06:10:43;22.83;;;17.27;;
55210;SDS011;41082;52.822;6.666;2023-02-15T06:13:10;22.33;;;16.98;;
55210;SDS011;41082;52.822;6.666;2023-02-15T06:15:35;24.23;;;17.17;;
55210;SDS011;41082;52.822;6.666;2023-02-15T06:18:01;25.30;;;18.58;;
55210;SDS011;41082;52.822;6.666;2023-02-15T06:20:27;30.60;;;20.60;;
55210;SDS011;41082;52.822;6.666;2023-02-15T06:22:52;36.83;;;21.98;;
55210;SDS011;41082;52.822;6.666;2023-02-15T06:25:18;37.95;;;22.88;;
55210;SDS011;41082;52.822;6.666;2023-02-15T06:27:43;33.75;;;21.52;;
55210;SDS011;41082;52.822;6.666;2023-02-15T06:30:09;32.65;;;20.75;;
55210;SDS011;41082;52.822;6.666;2023-02-15T06:32:36;32.17;;;20.55;;
55210;SDS011;41082;52.822;6.666;2023-02-15T06:35:02;30.10;;;20.15;;
55210;SDS011;41082;52.822;6.666;2023-02-15T06:37:27;35.47;;;21.25;;
55210;SDS011;41082;52.822;6.666;2023-02-15T06:39:53;30.15;;;19.27;;
55210;SDS011;41082;52.822;6.666;2023-02-15T06:42:19;30.58;;;19.08;;
55210;SDS011;41082;52.822;6.666;2023-02-15T06:44:44;27.85;;;18.73;;
55210;SDS011;41082;52.822;6.666;2023-02-15T06:47:10;29.95;;;19.95;;
55210;SDS011;41082;52.822;6.666;2023-02-15T06:49:36;32.47;;;20.05;;
55210;SDS011;41082;52.822;6.666;2023-02-15T06:52:02;33.83;;;20.02;;
55210;SDS011;41082;52.822;6.666;2023-02-15T06:54:29;34.17;;;21.52;;
55210;SDS011;41082;52.822;6.666;2023-02-15T06:56:55;31.92;;;20.13;;
55210;SDS011;41082;52.822;6.666;2023-02-15T06:59:20;32.88;;;21.00;;
55210;SDS011;41082;52.822;6.666;2023-02-15T07:01:47;35.55;;;21.83;;
55210;SDS011;41082;52.822;6.666;2023-02-15T07:04:12;36.33;;;21.27;;
55210;SDS011;41082;52.822;6.666;2023-02-15T07:06:38;36.67;;;23.15;;
55210;SDS011;41082;52.822;6.666;2023-02-15T07:09:03;40.40;;;24.77;;
55210;SDS011;41082;52.822;6.666;2023-02-15T07:11:29;42.35;;;22.88;;
55210;SDS011;41082;52.822;6.666;2023-02-15T07:14:14;39.38;;;22.98;;
55210;SDS011;41082;52.822;6.666;2023-02-15T07:16:40;38.35;;;23.50;;
55210;SDS011;41082;52.822;6.666;2023-02-15T07:19:05;42.85;;;24.73;;
55210;SDS011;41082;52.822;6.666;2023-02-15T07:21:32;42.78;;;24.20;;
55210;SDS011;41082;52.822;6.666;2023-02-15T07:23:58;46.03;;;26.25;;
55210;SDS011;41082;52.822;6.666;2023-02-15T07:26:24;45.67;;;25.70;;
55210;SDS011;41082;52.822;6.666;2023-02-15T07:28:50;45.35;;;26.48;;
55210;SDS011;41082;52.822;6.666;2023-02-15T07:31:15;45.10;;;26.10;;
55210;SDS011;41082;52.822;6.666;2023-02-15T07:33:41;44.40;;;24.50;;
55210;SDS011;41082;52.822;6.666;2023-02-15T07:36:06;45.72;;;26.48;;
55210;SDS011;41082;52.822;6.666;2023-02-15T07:38:38;44.17;;;26.13;;
55210;SDS011;41082;52.822;6.666;2023-02-15T07:41:06;46.47;;;26.67;;
55210;SDS011;41082;52.822;6.666;2023-02-15T07:43:35;45.13;;;26.35;;
55210;SDS011;41082;52.822;6.666;2023-02-15T07:46:03;42.55;;;26.42;;
55210;SDS011;41082;52.822;6.666;2023-02-15T07:48:31;45.58;;;26.35;;
55210;SDS011;41082;52.822;6.666;2023-02-15T07:51:00;44.78;;;26.02;;
55210;SDS011;41082;52.822;6.666;2023-02-15T07:53:26;45.08;;;26.23;;
55210;SDS011;41082;52.822;6.666;2023-02-15T07:55:53;44.67;;;25.23;;
55210;SDS011;41082;52.822;6.666;2023-02-15T07:58:19;44.72;;;27.02;;
55210;SDS011;41082;52.822;6.666;2023-02-15T08:00:45;43.17;;;25.50;;
55210;SDS011;41082;52.822;6.666;2023-02-15T08:03:23;41.63;;;26.00;;
55210;SDS011;41082;52.822;6.666;2023-02-15T08:05:51;45.20;;;25.35;;
55210;SDS011;41082;52.822;6.666;2023-02-15T08:08:22;44.78;;;25.67;;
55210;SDS011;41082;52.822;6.666;2023-02-15T08:16:23;42.03;;;27.02;;
55210;SDS011;41082;52.822;6.666;2023-02-15T08:18:59;43.58;;;25.90;;
55210;SDS011;41082;52.822;6.666;2023-02-15T08:21:27;43.60;;;26.63;;
55210;SDS011;41082;52.822;6.666;2023-02-15T08:23:54;44.53;;;26.48;;
55210;SDS011;41082;52.822;6.666;2023-02-15T08:26:20;49.88;;;26.70;;
55210;SDS011;41082;52.822;6.666;2023-02-15T08:28:47;45.20;;;25.95;;
55210;SDS011;41082;52.822;6.666;2023-02-15T08:31:13;43.65;;;26.77;;
55210;SDS011;41082;52.822;6.666;2023-02-15T08:33:40;43.95;;;25.67;;
55210;SDS011;41082;52.822;6.666;2023-02-15T08:36:09;47.40;;;26.42;;
55210;SDS011;41082;52.822;6.666;2023-02-15T08:38:36;43.33;;;26.13;;
55210;SDS011;41082;52.822;6.666;2023-02-15T08:43:38;44.33;;;26.92;;
55210;SDS011;41082;52.822;6.666;2023-02-15T08:46:05;48.08;;;26.77;;
55210;SDS011;41082;52.822;6.666;2023-02-15T08:48:31;44.50;;;27.75;;
55210;SDS011;41082;52.822;6.666;2023-02-15T08:50:57;46.95;;;28.05;;
55210;SDS011;41082;52.822;6.666;2023-02-15T08:53:22;48.75;;;28.10;;
55210;SDS011;41082;52.822;6.666;2023-02-15T08:55:55;46.80;;;27.55;;
55210;SDS011;41082;52.822;6.666;2023-02-15T08:58:22;42.00;;;26.80;;
55210;SDS011;41082;52.822;6.666;2023-02-15T09:00:48;45.65;;;27.30;;
55210;SDS011;41082;52.822;6.666;2023-02-15T09:03:14;51.13;;;28.65;;
55210;SDS011;41082;52.822;6.666;2023-02-15T09:05:40;46.00;;;28.30;;
55210;SDS011;41082;52.822;6.666;2023-02-15T09:08:05;48.35;;;28.42;;
55210;SDS011;41082;52.822;6.666;2023-02-15T09:10:31;49.47;;;28.00;;
55210;SDS011;41082;52.822;6.666;2023-02-15T09:12:56;44.30;;;27.45;;
55210;SDS011;41082;52.822;6.666;2023-02-15T09:15:22;48.47;;;27.02;;
55210;SDS011;41082;52.822;6.666;2023-02-15T09:17:47;45.33;;;26.70;;
55210;SDS011;41082;52.822;6.666;2023-02-15T09:20:13;49.92;;;29.65;;
55210;SDS011;41082;52.822;6.666;2023-02-15T09:22:38;51.13;;;28.45;;
55210;SDS011;41082;52.822;6.666;2023-02-15T09:25:04;49.30;;;29.92;;
55210;SDS011;41082;52.822;6.666;2023-02-15T09:27:30;49.63;;;29.88;;
55210;SDS011;41082;52.822;6.666;2023-02-15T09:29:55;48.85;;;30.33;;
55210;SDS011;41082;52.822;6.666;2023-02-15T09:32:21;47.15;;;29.80;;
55210;SDS011;41082;52.822;6.666;2023-02-15T09:34:47;48.80;;;29.50;;
55210;SDS011;41082;52.822;6.666;2023-02-15T09:37:13;50.30;;;29.60;;
55210;SDS011;41082;52.822;6.666;2023-02-15T09:39:39;52.75;;;31.00;;
55210;SDS011;41082;52.822;6.666;2023-02-15T09:42:29;48.75;;;30.40;;
55210;SDS011;41082;52.822;6.666;2023-02-15T09:53:24;45.72;;;28.92;;
55210;SDS011;41082;52.822;6.666;2023-02-15T09:58:46;47.22;;;30.38;;
55210;SDS011;41082;52.822;6.666;2023-02-15T10:01:38;49.72;;;30.30;;
55210;SDS011;41082;52.822;6.666;2023-02-15T10:04:27;50.40;;;31.13;;
55210;SDS011;41082;52.822;6.666;2023-02-15T10:15:29;49.13;;;30.13;;
55210;SDS011;41082;52.822;6.666;2023-02-15T10:20:56;47.10;;;30.65;;
55210;SDS011;41082;52.822;6.666;2023-02-15T10:23:40;49.42;;;31.17;;
55210;SDS011;41082;52.822;6.666;2023-02-15T10:34:15;51.33;;;31.77;;
55210;SDS011;41082;52.822;6.666;2023-02-15T10:36:59;45.60;;;30.02;;
55210;SDS011;41082;52.822;6.666;2023-02-15T10:45:16;47.35;;;31.70;;
55210;SDS011;41082;52.822;6.666;2023-02-15T10:50:51;45.80;;;29.65;;
55210;SDS011;41082;52.822;6.666;2023-02-15T11:01:47;43.67;;;30.20;;
55210;SDS011;41082;52.822;6.666;2023-02-15T11:06:51;45.38;;;30.38;;
55210;SDS011;41082;52.822;6.666;2023-02-15T11:09:22;43.08;;;30.63;;
55210;SDS011;41082;52.822;6.666;2023-02-15T11:11:53;47.28;;;31.33;;
55210;SDS011;41082;52.822;6.666;2023-02-15T11:14:31;46.05;;;30.10;;
55210;SDS011;41082;52.822;6.666;2023-02-15T11:17:21;47.33;;;31.02;;
55210;SDS011;41082;52.822;6.666;2023-02-15T11:22:58;51.08;;;32.22;;
55210;SDS011;41082;52.822;6.666;2023-02-15T11:25:28;48.25;;;30.58;;
55210;SDS011;41082;52.822;6.666;2023-02-15T11:27:56;44.33;;;30.53;;
55210;SDS011;41082;52.822;6.666;2023-02-15T11:30:23;44.67;;;30.80;;
55210;SDS011;41082;52.822;6.666;2023-02-15T11:32:56;47.67;;;30.38;;
55210;SDS011;41082;52.822;6.666;2023-02-15T11:35:35;46.67;;;30.98;;
55210;SDS011;41082;52.822;6.666;2023-02-15T11:38:21;46.45;;;31.20;;
55210;SDS011;41082;52.822;6.666;2023-02-15T11:40:54;45.25;;;30.95;;
55210;SDS011;41082;52.822;6.666;2023-02-15T11:43:26;45.13;;;30.40;;
55210;SDS011;41082;52.822;6.666;2023-02-15T11:45:57;42.40;;;29.27;;
55210;SDS011;41082;52.822;6.666;2023-02-15T11:48:23;44.92;;;30.45;;
55210;SDS011;41082;52.822;6.666;2023-02-15T11:50:49;45.50;;;31.50;;
55210;SDS011;41082;52.822;6.666;2023-02-15T11:53:15;44.58;;;30.08;;
55210;SDS011;41082;52.822;6.666;2023-02-15T11:55:43;45.17;;;31.08;;
55210;SDS011;41082;52.822;6.666;2023-02-15T12:00:49;41.70;;;28.05;;
55210;SDS011;41082;52.822;6.666;2023-02-15T12:03:34;48.67;;;30.20;;
55210;SDS011;41082;52.822;6.666;2023-02-15T12:06:12;44.53;;;30.17;;
55210;SDS011;41082;52.822;6.666;2023-02-15T12:11:33;43.63;;;28.30;;
55210;SDS011;41082;52.822;6.666;2023-02-15T12:14:07;43.63;;;28.50;;
55210;SDS011;41082;52.822;6.666;2023-02-15T12:16:41;46.00;;;29.55;;
55210;SDS011;41082;52.822;6.666;2023-02-15T12:19:12;45.10;;;28.17;;
55210;SDS011;41082;52.822;6.666;2023-02-15T12:21:58;43.72;;;28.48;;
55210;SDS011;41082;52.822;6.666;2023-02-15T12:24:36;42.65;;;27.17;;
55210;SDS011;41082;52.822;6.666;2023-02-15T12:27:18;42.67;;;28.20;;
55210;SDS011;41082;52.822;6.666;2023-02-15T12:29:51;40.33;;;26.27;;
55210;SDS011;41082;52.822;6.666;2023-02-15T12:32:36;42.78;;;26.50;;
55210;SDS011;41082;52.822;6.666;2023-02-15T12:35:20;41.83;;;26.20;;
55210;SDS011;41082;52.822;6.666;2023-02-15T12:37:53;42.38;;;26.05;;
55210;SDS011;41082;52.822;6.666;2023-02-15T12:40:23;47.30;;;27.08;;
55210;SDS011;41082;52.822;6.666;2023-02-15T12:42:52;46.03;;;27.45;;
55210;SDS011;41082;52.822;6.666;2023-02-15T12:45:23;44.50;;;27.40;;
55210;SDS011;41082;52.822;6.666;2023-02-15T12:50:36;38.53;;;25.73;;
55210;SDS011;41082;52.822;6.666;2023-02-15T12:53:45;42.45;;;26.35;;
55210;SDS011;41082;52.822;6.666;2023-02-15T12:56:03;40.92;;;25.48;;
55210;SDS011;41082;52.822;6.666;2023-02-15T12:58:34;43.80;;;25.33;;
55210;SDS011;41082;52.822;6.666;2023-02-15T13:01:04;39.75;;;26.73;;
55210;SDS011;41082;52.822;6.666;2023-02-15T13:04:05;39.60;;;25.13;;
55210;SDS011;41082;52.822;6.666;2023-02-15T13:06:44;39.90;;;25.92;;
55210;SDS011;41082;52.822;6.666;2023-02-15T13:09:18;43.60;;;25.92;;
55210;SDS011;41082;52.822;6.666;2023-02-15T13:11:48;40.40;;;25.63;;
55210;SDS011;41082;52.822;6.666;2023-02-15T13:14:21;38.20;;;24.70;;
55210;SDS011;41082;52.822;6.666;2023-02-15T13:16:56;39.35;;;25.42;;
55210;SDS011;41082;52.822;6.666;2023-02-15T13:22:00;38.17;;;25.13;;
55210;SDS011;41082;52.822;6.666;2023-02-15T13:24:33;39.67;;;25.73;;
55210;SDS011;41082;52.822;6.666;2023-02-15T13:27:10;38.22;;;25.40;;
55210;SDS011;41082;52.822;6.666;2023-02-15T13:29:41;39.05;;;24.60;;
55210;SDS011;41082;52.822;6.666;2023-02-15T13:32:20;39.33;;;26.15;;
55210;SDS011;41082;52.822;6.666;2023-02-15T13:34:48;42.70;;;24.63;;
55210;SDS011;41082;52.822;6.666;2023-02-15T13:37:19;38.40;;;25.92;;
55210;SDS011;41082;52.822;6.666;2023-02-15T13:39:51;38.45;;;25.70;;
55210;SDS011;41082;52.822;6.666;2023-02-15T13:42:46;38.92;;;26.33;;
55210;SDS011;41082;52.822;6.666;2023-02-15T13:56:58;39.03;;;25.23;;
55210;SDS011;41082;52.822;6.666;2023-02-15T14:02:19;38.75;;;24.80;;
55210;SDS011;41082;52.822;6.666;2023-02-15T14:07:47;35.67;;;25.58;;
55210;SDS011;41082;52.822;6.666;2023-02-15T14:15:48;39.08;;;24.77;;
55210;SDS011;41082;52.822;6.666;2023-02-15T14:21:06;37.13;;;23.88;;
55210;SDS011;41082;52.822;6.666;2023-02-15T14:23:53;35.42;;;23.67;;
55210;SDS011;41082;52.822;6.666;2023-02-15T14:26:55;39.42;;;23.77;;
55210;SDS011;41082;52.822;6.666;2023-02-15T14:29:45;39.40;;;23.55;;
55210;SDS011;41082;52.822;6.666;2023-02-15T14:34:58;38.33;;;23.52;;
55210;SDS011;41082;52.822;6.666;2023-02-15T14:37:31;35.65;;;23.45;;
55210;SDS011;41082;52.822;6.666;2023-02-15T14:44:11;38.58;;;24.63;;
55210;SDS011;41082;52.822;6.666;2023-02-15T14:46:45;36.30;;;23.33;;
55210;SDS011;41082;52.822;6.666;2023-02-15T14:49:19;36.72;;;23.52;;
55210;SDS011;41082;52.822;6.666;2023-02-15T14:51:58;36.03;;;23.92;;
55210;SDS011;41082;52.822;6.666;2023-02-15T15:04:40;37.80;;;24.60;;
55210;SDS011;41082;52.822;6.666;2023-02-15T15:07:20;37.67;;;25.30;;
55210;SDS011;41082;52.822;6.666;2023-02-15T15:10:00;38.58;;;24.58;;
55210;SDS011;41082;52.822;6.666;2023-02-15T15:12:40;37.05;;;24.02;;
55210;SDS011;41082;52.822;6.666;2023-02-15T15:15:07;38.58;;;24.10;;
55210;SDS011;41082;52.822;6.666;2023-02-15T15:20:10;36.78;;;23.92;;
55210;SDS011;41082;52.822;6.666;2023-02-15T15:25:41;36.92;;;23.77;;
55210;SDS011;41082;52.822;6.666;2023-02-15T15:28:15;43.08;;;27.50;;
55210;SDS011;41082;52.822;6.666;2023-02-15T15:36:56;44.72;;;26.33;;
55210;SDS011;41082;52.822;6.666;2023-02-15T15:42:31;35.50;;;22.55;;
55210;SDS011;41082;52.822;6.666;2023-02-15T15:50:42;35.58;;;22.00;;
55210;SDS011;41082;52.822;6.666;2023-02-15T15:53:27;38.97;;;24.42;;
55210;SDS011;41082;52.822;6.666;2023-02-15T15:56:01;33.15;;;22.20;;
55210;SDS011;41082;52.822;6.666;2023-02-15T15:58:31;39.13;;;25.48;;
55210;SDS011;41082;52.822;6.666;2023-02-15T16:01:09;34.00;;;21.73;;
55210;SDS011;41082;52.822;6.666;2023-02-15T16:03:36;36.70;;;22.65;;
55210;SDS011;41082;52.822;6.666;2023-02-15T16:06:02;33.55;;;22.23;;
55210;SDS011;41082;52.822;6.666;2023-02-15T16:08:28;31.60;;;20.83;;
55210;SDS011;41082;52.822;6.666;2023-02-15T16:10:56;35.22;;;21.63;;
55210;SDS011;41082;52.822;6.666;2023-02-15T16:13:22;31.65;;;21.10;;
55210;SDS011;41082;52.822;6.666;2023-02-15T16:15:52;36.22;;;22.55;;
55210;SDS011;41082;52.822;6.666;2023-02-15T16:18:21;35.78;;;20.98;;
55210;SDS011;41082;52.822;6.666;2023-02-15T16:20:50;37.00;;;21.33;;
55210;SDS011;41082;52.822;6.666;2023-02-15T16:28:53;37.35;;;22.33;;
55210;SDS011;41082;52.822;6.666;2023-02-15T16:31:19;36.10;;;21.70;;
55210;SDS011;41082;52.822;6.666;2023-02-15T16:33:47;37.83;;;22.88;;
55210;SDS011;41082;52.822;6.666;2023-02-15T16:36:23;59.90;;;39.97;;
55210;SDS011;41082;52.822;6.666;2023-02-15T16:41:17;35.65;;;22.15;;
55210;SDS011;41082;52.822;6.666;2023-02-15T16:43:48;37.88;;;22.63;;
55210;SDS011;41082;52.822;6.666;2023-02-15T16:46:35;37.67;;;23.10;;
55210;SDS011;41082;52.822;6.666;2023-02-15T16:49:04;42.47;;;22.85;;
55210;SDS011;41082;52.822;6.666;2023-02-15T16:51:39;34.92;;;22.55;;
55210;SDS011;41082;52.822;6.666;2023-02-15T16:54:08;40.08;;;23.70;;
55210;SDS011;41082;52.822;6.666;2023-02-15T16:56:43;38.80;;;23.67;;
55210;SDS011;41082;52.822;6.666;2023-02-15T16:59:16;36.55;;;23.95;;
55210;SDS011;41082;52.822;6.666;2023-02-15T17:01:58;37.40;;;23.13;;
55210;SDS011;41082;52.822;6.666;2023-02-15T17:04:26;43.00;;;23.42;;
55210;SDS011;41082;52.822;6.666;2023-02-15T17:07:04;38.10;;;22.65;;
55210;SDS011;41082;52.822;6.666;2023-02-15T17:09:32;43.88;;;25.08;;
55210;SDS011;41082;52.822;6.666;2023-02-15T17:11:58;39.78;;;24.42;;
55210;SDS011;41082;52.822;6.666;2023-02-15T17:14:27;39.67;;;23.70;;
55210;SDS011;41082;52.822;6.666;2023-02-15T17:16:54;40.95;;;23.85;;
55210;SDS011;41082;52.822;6.666;2023-02-15T17:19:26;38.65;;;23.25;;
55210;SDS011;41082;52.822;6.666;2023-02-15T17:21:55;42.25;;;24.55;;
55210;SDS011;41082;52.822;6.666;2023-02-15T17:27:12;39.00;;;23.95;;
55210;SDS011;41082;52.822;6.666;2023-02-15T17:29:48;38.58;;;23.63;;
55210;SDS011;41082;52.822;6.666;2023-02-15T17:32:20;38.72;;;23.58;;
55210;SDS011;41082;52.822;6.666;2023-02-15T17:34:49;38.95;;;24.42;;